sensor_id;sensor_type;location;lat;lon;timestamp;temperature;humidity
17284;DHT22;8760;52.248;20.952;2023-02-28T00:00:23;-2.40;99.90
17284;DHT22;8760;52.248;20.952;2023-02-28T00:02:50;-2.40;1.00
17284;DHT22;8760;52.248;20.952;2023-02-28T00:05:19;-2.50;1.00
17284;DHT22;8760;52.248;20.952;2023-02-28T00:07:49;-2.50;1.00
17284;DHT22;8760;52.248;20.952;2023-02-28T00:10:18;-2.50;1.00
17284;DHT22;8760;52.248;20.952;2023-02-28T00:12:46;-2.50;1.00
17284;DHT22;8760;52.248;20.952;2023-02-28T00:15:13;-2.50;1.00
17284;DHT22;8760;52.248;20.952;2023-02-28T00:17:40;-2.60;99.90
17284;DHT22;8760;52.248;20.952;2023-02-28T00:20:08;-2.60;99.90
17284;DHT22;8760;52.248;20.952;2023-02-28T00:22:38;-2.60;99.90
17284;DHT22;8760;52.248;20.952;2023-02-28T00:25:08;-2.70;99.90
17284;DHT22;8760;52.248;20.952;2023-02-28T00:27:35;-2.70;1.70
17284;DHT22;8760;52.248;20.952;2023-02-28T00:30:03;-2.70;1.00
17284;DHT22;8760;52.248;20.952;2023-02-28T00:32:31;-2.70;1.00
17284;DHT22;8760;52.248;20.952;2023-02-28T00:34:58;-2.80;99.90
17284;DHT22;8760;52.248;20.952;2023-02-28T00:37:25;-2.70;21.10
17284;DHT22;8760;52.248;20.952;2023-02-28T00:39:52;-2.80;99.90
17284;DHT22;8760;52.248;20.952;2023-02-28T00:42:20;-2.90;1.00
17284;DHT22;8760;52.248;20.952;2023-02-28T00:44:47;-2.90;99.90
17284;DHT22;8760;52.248;20.952;2023-02-28T00:47:14;-2.90;99.90
17284;DHT22;8760;52.248;20.952;2023-02-28T00:49:41;-2.90;25.00
17284;DHT22;8760;52.248;20.952;2023-02-28T00:52:08;-2.90;1.00
17284;DHT22;8760;52.248;20.952;2023-02-28T00:54:35;-2.90;99.90
17284;DHT22;8760;52.248;20.952;2023-02-28T00:57:02;-3.00;99.90
17284;DHT22;8760;52.248;20.952;2023-02-28T00:59:30;-3.00;99.90
17284;DHT22;8760;52.248;20.952;2023-02-28T01:01:57;-3.10;99.90
17284;DHT22;8760;52.248;20.952;2023-02-28T01:04:24;-3.10;1.00
17284;DHT22;8760;52.248;20.952;2023-02-28T01:06:51;-3.10;99.90
17284;DHT22;8760;52.248;20.952;2023-02-28T01:09:19;-3.10;1.00
17284;DHT22;8760;52.248;20.952;2023-02-28T01:11:46;-3.10;99.90
17284;DHT22;8760;52.248;20.952;2023-02-28T01:14:14;-3.20;99.90
17284;DHT22;8760;52.248;20.952;2023-02-28T01:16:43;-3.20;1.00
17284;DHT22;8760;52.248;20.952;2023-02-28T01:19:10;-3.20;1.00
17284;DHT22;8760;52.248;20.952;2023-02-28T01:21:37;-3.20;99.90
17284;DHT22;8760;52.248;20.952;2023-02-28T01:24:04;-3.20;3.30
17284;DHT22;8760;52.248;20.952;2023-02-28T01:26:32;-3.20;99.90
17284;DHT22;8760;52.248;20.952;2023-02-28T01:28:59;-3.20;99.90
17284;DHT22;8760;52.248;20.952;2023-02-28T01:31:26;-3.30;58.80
17284;DHT22;8760;52.248;20.952;2023-02-28T01:33:54;-3.30;1.00
17284;DHT22;8760;52.248;20.952;2023-02-28T01:36:22;-3.30;99.90
17284;DHT22;8760;52.248;20.952;2023-02-28T01:38:49;-3.30;99.90
17284;DHT22;8760;52.248;20.952;2023-02-28T01:41:18;-3.30;1.00
17284;DHT22;8760;52.248;20.952;2023-02-28T01:43:55;-3.30;1.00
17284;DHT22;8760;52.248;20.952;2023-02-28T01:46:23;-3.30;1.00
17284;DHT22;8760;52.248;20.952;2023-02-28T01:48:54;-3.30;36.60
17284;DHT22;8760;52.248;20.952;2023-02-28T01:51:26;-3.40;1.00
17284;DHT22;8760;52.248;20.952;2023-02-28T01:53:58;-3.40;1.00
17284;DHT22;8760;52.248;20.952;2023-02-28T01:56:29;-3.40;99.90
17284;DHT22;8760;52.248;20.952;2023-02-28T01:58:57;-3.40;1.00
17284;DHT22;8760;52.248;20.952;2023-02-28T02:01:26;-3.40;1.00
17284;DHT22;8760;52.248;20.952;2023-02-28T02:03:57;-3.50;99.90
17284;DHT22;8760;52.248;20.952;2023-02-28T02:06:27;-3.50;1.00
17284;DHT22;8760;52.248;20.952;2023-02-28T02:08:55;-3.50;1.00
17284;DHT22;8760;52.248;20.952;2023-02-28T02:11:24;-3.50;1.00
17284;DHT22;8760;52.248;20.952;2023-02-28T02:14:12;-3.50;1.00
17284;DHT22;8760;52.248;20.952;2023-02-28T02:16:53;-3.60;99.90
17284;DHT22;8760;52.248;20.952;2023-02-28T02:19:52;-3.50;1.00
17284;DHT22;8760;52.248;20.952;2023-02-28T02:22:43;-3.60;1.00
17284;DHT22;8760;52.248;20.952;2023-02-28T02:25:26;-3.60;1.00
17284;DHT22;8760;52.248;20.952;2023-02-28T02:28:28;-3.60;99.90
17284;DHT22;8760;52.248;20.952;2023-02-28T02:31:11;-3.60;1.00
17284;DHT22;8760;52.248;20.952;2023-02-28T02:36:47;-3.70;1.00
17284;DHT22;8760;52.248;20.952;2023-02-28T02:39:17;-3.70;99.90
17284;DHT22;8760;52.248;20.952;2023-02-28T02:41:49;-3.70;99.90
17284;DHT22;8760;52.248;20.952;2023-02-28T02:44:21;-3.70;23.20
17284;DHT22;8760;52.248;20.952;2023-02-28T02:46:52;-3.70;99.90
17284;DHT22;8760;52.248;20.952;2023-02-28T02:49:22;-3.70;1.00
17284;DHT22;8760;52.248;20.952;2023-02-28T02:51:53;-3.70;1.00
17284;DHT22;8760;52.248;20.952;2023-02-28T02:54:24;-3.70;1.00
17284;DHT22;8760;52.248;20.952;2023-02-28T02:56:56;-3.70;99.90
17284;DHT22;8760;52.248;20.952;2023-02-28T02:59:24;-3.70;99.90
17284;DHT22;8760;52.248;20.952;2023-02-28T03:01:56;-3.80;1.00
17284;DHT22;8760;52.248;20.952;2023-02-28T03:04:26;-3.80;1.00
17284;DHT22;8760;52.248;20.952;2023-02-28T03:06:56;-3.80;6.70
17284;DHT22;8760;52.248;20.952;2023-02-28T03:09:24;-3.80;99.90
17284;DHT22;8760;52.248;20.952;2023-02-28T03:11:54;-3.80;99.90
17284;DHT22;8760;52.248;20.952;2023-02-28T03:14:36;-3.80;1.00
17284;DHT22;8760;52.248;20.952;2023-02-28T03:17:34;-3.80;1.00
17284;DHT22;8760;52.248;20.952;2023-02-28T03:20:13;-3.80;1.00
17284;DHT22;8760;52.248;20.952;2023-02-28T03:22:51;-3.80;1.00
17284;DHT22;8760;52.248;20.952;2023-02-28T03:25:22;-3.80;1.00
17284;DHT22;8760;52.248;20.952;2023-02-28T03:28:03;-3.90;1.00
17284;DHT22;8760;52.248;20.952;2023-02-28T03:30:36;-3.90;94.40
17284;DHT22;8760;52.248;20.952;2023-02-28T03:33:08;-3.90;99.90
17284;DHT22;8760;52.248;20.952;2023-02-28T03:35:37;-3.90;99.90
17284;DHT22;8760;52.248;20.952;2023-02-28T03:38:10;-3.90;99.90
17284;DHT22;8760;52.248;20.952;2023-02-28T03:40:42;-3.80;99.90
17284;DHT22;8760;52.248;20.952;2023-02-28T03:43:14;-3.80;99.90
17284;DHT22;8760;52.248;20.952;2023-02-28T03:45:45;-3.80;99.90
17284;DHT22;8760;52.248;20.952;2023-02-28T03:48:16;-3.90;99.90
17284;DHT22;8760;52.248;20.952;2023-02-28T03:50:48;-3.90;99.90
17284;DHT22;8760;52.248;20.952;2023-02-28T03:53:19;-3.90;99.90
17284;DHT22;8760;52.248;20.952;2023-02-28T03:55:52;-3.90;99.90
17284;DHT22;8760;52.248;20.952;2023-02-28T03:58:24;-3.90;99.90
17284;DHT22;8760;52.248;20.952;2023-02-28T04:00:59;-3.90;1.00
17284;DHT22;8760;52.248;20.952;2023-02-28T04:03:34;-4.00;99.90
17284;DHT22;8760;52.248;20.952;2023-02-28T04:06:01;-4.00;1.00
17284;DHT22;8760;52.248;20.952;2023-02-28T04:08:29;-4.00;1.00
17284;DHT22;8760;52.248;20.952;2023-02-28T04:11:02;-4.00;1.00
17284;DHT22;8760;52.248;20.952;2023-02-28T04:13:30;-4.00;1.00
17284;DHT22;8760;52.248;20.952;2023-02-28T04:15:57;-4.00;1.00
17284;DHT22;8760;52.248;20.952;2023-02-28T04:18:23;-4.00;1.00
17284;DHT22;8760;52.248;20.952;2023-02-28T04:20:51;-4.00;1.00
17284;DHT22;8760;52.248;20.952;2023-02-28T04:23:18;-4.00;1.00
17284;DHT22;8760;52.248;20.952;2023-02-28T04:25:46;-4.00;1.00
17284;DHT22;8760;52.248;20.952;2023-02-28T04:28:13;-4.00;1.00
17284;DHT22;8760;52.248;20.952;2023-02-28T04:30:40;-4.00;1.00
17284;DHT22;8760;52.248;20.952;2023-02-28T04:33:07;-4.10;1.00
17284;DHT22;8760;52.248;20.952;2023-02-28T04:35:34;-4.00;1.00
17284;DHT22;8760;52.248;20.952;2023-02-28T04:38:01;-4.00;1.00
17284;DHT22;8760;52.248;20.952;2023-02-28T04:40:28;-4.10;1.00
17284;DHT22;8760;52.248;20.952;2023-02-28T04:42:56;-4.10;1.00
17284;DHT22;8760;52.248;20.952;2023-02-28T04:45:23;-4.10;1.00
17284;DHT22;8760;52.248;20.952;2023-02-28T04:47:50;-4.10;1.00
17284;DHT22;8760;52.248;20.952;2023-02-28T04:50:17;-4.20;1.00
17284;DHT22;8760;52.248;20.952;2023-02-28T04:52:44;-4.20;1.00
17284;DHT22;8760;52.248;20.952;2023-02-28T04:55:11;-4.20;1.00
17284;DHT22;8760;52.248;20.952;2023-02-28T04:57:38;-4.20;1.00
17284;DHT22;8760;52.248;20.952;2023-02-28T05:00:08;-4.10;1.00
17284;DHT22;8760;52.248;20.952;2023-02-28T05:02:37;-4.10;1.00
17284;DHT22;8760;52.248;20.952;2023-02-28T05:05:05;-4.10;1.00
17284;DHT22;8760;52.248;20.952;2023-02-28T05:07:32;-4.10;1.00
17284;DHT22;8760;52.248;20.952;2023-02-28T05:09:59;-4.10;1.00
17284;DHT22;8760;52.248;20.952;2023-02-28T05:12:26;-4.20;1.00
17284;DHT22;8760;52.248;20.952;2023-02-28T05:14:53;-4.10;1.00
17284;DHT22;8760;52.248;20.952;2023-02-28T05:17:21;-4.20;1.00
17284;DHT22;8760;52.248;20.952;2023-02-28T05:19:48;-4.20;1.00
17284;DHT22;8760;52.248;20.952;2023-02-28T05:22:15;-4.20;1.00
17284;DHT22;8760;52.248;20.952;2023-02-28T05:24:42;-4.20;1.00
17284;DHT22;8760;52.248;20.952;2023-02-28T05:27:10;-4.20;1.00
17284;DHT22;8760;52.248;20.952;2023-02-28T05:29:37;-4.10;1.00
17284;DHT22;8760;52.248;20.952;2023-02-28T05:32:09;-4.10;1.00
17284;DHT22;8760;52.248;20.952;2023-02-28T05:34:38;-4.10;1.00
17284;DHT22;8760;52.248;20.952;2023-02-28T05:37:05;-4.10;1.00
17284;DHT22;8760;52.248;20.952;2023-02-28T05:39:32;-4.00;1.00
17284;DHT22;8760;52.248;20.952;2023-02-28T05:41:59;-4.00;1.00
17284;DHT22;8760;52.248;20.952;2023-02-28T05:44:26;-4.00;1.00
17284;DHT22;8760;52.248;20.952;2023-02-28T05:46:53;-4.00;1.00
17284;DHT22;8760;52.248;20.952;2023-02-28T05:49:23;-4.00;1.00
17284;DHT22;8760;52.248;20.952;2023-02-28T05:51:59;-4.00;1.00
17284;DHT22;8760;52.248;20.952;2023-02-28T05:54:26;-4.00;1.00
17284;DHT22;8760;52.248;20.952;2023-02-28T05:56:53;-3.90;1.00
17284;DHT22;8760;52.248;20.952;2023-02-28T05:59:20;-3.90;1.00
17284;DHT22;8760;52.248;20.952;2023-02-28T06:01:47;-3.80;1.00
17284;DHT22;8760;52.248;20.952;2023-02-28T06:04:16;-3.80;1.00
17284;DHT22;8760;52.248;20.952;2023-02-28T06:06:44;-3.70;1.00
17284;DHT22;8760;52.248;20.952;2023-02-28T06:09:12;-3.70;1.00
17284;DHT22;8760;52.248;20.952;2023-02-28T06:11:40;-3.70;1.00
17284;DHT22;8760;52.248;20.952;2023-02-28T06:14:07;-3.60;1.00
17284;DHT22;8760;52.248;20.952;2023-02-28T06:16:34;-3.70;1.00
17284;DHT22;8760;52.248;20.952;2023-02-28T06:19:06;-3.70;1.00
17284;DHT22;8760;52.248;20.952;2023-02-28T06:21:33;-3.50;1.00
17284;DHT22;8760;52.248;20.952;2023-02-28T06:24:00;-3.50;1.00
17284;DHT22;8760;52.248;20.952;2023-02-28T06:26:29;-3.50;1.00
17284;DHT22;8760;52.248;20.952;2023-02-28T06:28:56;-3.40;1.00
17284;DHT22;8760;52.248;20.952;2023-02-28T06:31:23;-3.30;1.00
17284;DHT22;8760;52.248;20.952;2023-02-28T06:33:51;-3.20;1.00
17284;DHT22;8760;52.248;20.952;2023-02-28T06:36:18;-3.10;1.00
17284;DHT22;8760;52.248;20.952;2023-02-28T06:38:48;-3.00;1.00
17284;DHT22;8760;52.248;20.952;2023-02-28T06:41:20;-2.90;1.00
17284;DHT22;8760;52.248;20.952;2023-02-28T06:43:49;-2.90;1.00
17284;DHT22;8760;52.248;20.952;2023-02-28T06:46:16;-2.70;1.00
17284;DHT22;8760;52.248;20.952;2023-02-28T06:48:44;-2.60;1.00
17284;DHT22;8760;52.248;20.952;2023-02-28T06:51:14;-2.60;1.00
17284;DHT22;8760;52.248;20.952;2023-02-28T06:53:42;-2.40;1.00
17284;DHT22;8760;52.248;20.952;2023-02-28T06:56:10;-2.30;1.00
17284;DHT22;8760;52.248;20.952;2023-02-28T06:58:38;-2.10;1.00
17284;DHT22;8760;52.248;20.952;2023-02-28T07:01:07;-1.80;99.90
17284;DHT22;8760;52.248;20.952;2023-02-28T07:03:35;-1.50;99.90
17284;DHT22;8760;52.248;20.952;2023-02-28T07:06:04;-1.30;1.00
17284;DHT22;8760;52.248;20.952;2023-02-28T07:08:31;-1.00;99.90
17284;DHT22;8760;52.248;20.952;2023-02-28T07:10:58;-0.70;1.00
17284;DHT22;8760;52.248;20.952;2023-02-28T07:13:25;-0.20;1.00
17284;DHT22;8760;52.248;20.952;2023-02-28T07:15:56;0.50;1.00
17284;DHT22;8760;52.248;20.952;2023-02-28T07:18:25;1.30;99.90
17284;DHT22;8760;52.248;20.952;2023-02-28T07:20:53;1.80;1.00
17284;DHT22;8760;52.248;20.952;2023-02-28T07:23:20;2.10;1.00
17284;DHT22;8760;52.248;20.952;2023-02-28T07:25:49;2.80;1.00
17284;DHT22;8760;52.248;20.952;2023-02-28T07:28:16;2.90;99.90
17284;DHT22;8760;52.248;20.952;2023-02-28T07:30:43;3.20;99.90
17284;DHT22;8760;52.248;20.952;2023-02-28T07:33:10;3.60;99.90
17284;DHT22;8760;52.248;20.952;2023-02-28T07:35:39;3.80;99.90
17284;DHT22;8760;52.248;20.952;2023-02-28T07:38:06;3.50;99.90
17284;DHT22;8760;52.248;20.952;2023-02-28T07:40:34;3.00;99.90
17284;DHT22;8760;52.248;20.952;2023-02-28T07:43:02;2.50;99.90
17284;DHT22;8760;52.248;20.952;2023-02-28T07:45:29;1.90;99.90
17284;DHT22;8760;52.248;20.952;2023-02-28T07:47:57;1.60;99.90
17284;DHT22;8760;52.248;20.952;2023-02-28T07:50:24;1.30;99.90
17284;DHT22;8760;52.248;20.952;2023-02-28T07:52:52;1.30;99.90
17284;DHT22;8760;52.248;20.952;2023-02-28T07:55:19;1.20;99.90
17284;DHT22;8760;52.248;20.952;2023-02-28T07:57:46;1.20;99.90
17284;DHT22;8760;52.248;20.952;2023-02-28T08:00:13;1.60;99.90
17284;DHT22;8760;52.248;20.952;2023-02-28T08:02:40;2.40;99.90
17284;DHT22;8760;52.248;20.952;2023-02-28T08:05:08;3.10;99.90
17284;DHT22;8760;52.248;20.952;2023-02-28T08:07:35;4.20;99.90
17284;DHT22;8760;52.248;20.952;2023-02-28T08:10:04;4.60;99.90
17284;DHT22;8760;52.248;20.952;2023-02-28T08:12:32;5.00;99.90
17284;DHT22;8760;52.248;20.952;2023-02-28T08:14:59;5.50;99.90
17284;DHT22;8760;52.248;20.952;2023-02-28T08:17:26;5.90;99.90
17284;DHT22;8760;52.248;20.952;2023-02-28T08:19:53;6.20;99.90
17284;DHT22;8760;52.248;20.952;2023-02-28T08:22:20;6.40;99.90
17284;DHT22;8760;52.248;20.952;2023-02-28T08:24:47;7.00;99.90
17284;DHT22;8760;52.248;20.952;2023-02-28T08:27:16;7.20;99.90
17284;DHT22;8760;52.248;20.952;2023-02-28T08:29:43;7.20;99.90
17284;DHT22;8760;52.248;20.952;2023-02-28T08:32:10;7.50;99.90
17284;DHT22;8760;52.248;20.952;2023-02-28T08:34:39;8.10;99.90
17284;DHT22;8760;52.248;20.952;2023-02-28T08:37:06;8.40;99.90
17284;DHT22;8760;52.248;20.952;2023-02-28T08:39:34;8.90;99.90
17284;DHT22;8760;52.248;20.952;2023-02-28T08:42:01;8.50;99.90
17284;DHT22;8760;52.248;20.952;2023-02-28T08:44:29;7.90;99.90
17284;DHT22;8760;52.248;20.952;2023-02-28T08:46:56;8.40;99.90
17284;DHT22;8760;52.248;20.952;2023-02-28T08:49:23;8.70;99.90
17284;DHT22;8760;52.248;20.952;2023-02-28T08:51:50;8.60;99.90
17284;DHT22;8760;52.248;20.952;2023-02-28T08:54:17;8.90;99.90
17284;DHT22;8760;52.248;20.952;2023-02-28T08:56:45;9.00;99.90
17284;DHT22;8760;52.248;20.952;2023-02-28T08:59:13;9.10;99.90
17284;DHT22;8760;52.248;20.952;2023-02-28T09:01:41;9.20;99.90
17284;DHT22;8760;52.248;20.952;2023-02-28T09:04:09;9.60;99.90
17284;DHT22;8760;52.248;20.952;2023-02-28T09:06:37;9.60;99.90
17284;DHT22;8760;52.248;20.952;2023-02-28T09:09:04;9.40;99.90
17284;DHT22;8760;52.248;20.952;2023-02-28T09:11:33;9.30;99.90
17284;DHT22;8760;52.248;20.952;2023-02-28T09:14:01;9.80;99.90
17284;DHT22;8760;52.248;20.952;2023-02-28T09:16:29;10.00;99.90
17284;DHT22;8760;52.248;20.952;2023-02-28T09:18:58;10.20;99.90
17284;DHT22;8760;52.248;20.952;2023-02-28T09:21:26;10.00;99.90
17284;DHT22;8760;52.248;20.952;2023-02-28T09:23:53;10.50;99.90
17284;DHT22;8760;52.248;20.952;2023-02-28T09:26:22;10.70;99.90
17284;DHT22;8760;52.248;20.952;2023-02-28T09:28:49;11.00;99.90
17284;DHT22;8760;52.248;20.952;2023-02-28T09:31:18;11.10;99.90
17284;DHT22;8760;52.248;20.952;2023-02-28T09:33:47;11.10;99.90
17284;DHT22;8760;52.248;20.952;2023-02-28T09:36:16;11.40;99.90
17284;DHT22;8760;52.248;20.952;2023-02-28T09:38:43;11.40;99.90
17284;DHT22;8760;52.248;20.952;2023-02-28T09:41:13;11.40;99.90
17284;DHT22;8760;52.248;20.952;2023-02-28T09:43:44;10.90;99.90
17284;DHT22;8760;52.248;20.952;2023-02-28T09:46:21;11.30;99.90
17284;DHT22;8760;52.248;20.952;2023-02-28T09:48:52;11.00;99.90
17284;DHT22;8760;52.248;20.952;2023-02-28T09:51:33;11.20;99.90
17284;DHT22;8760;52.248;20.952;2023-02-28T09:54:03;11.20;99.90
17284;DHT22;8760;52.248;20.952;2023-02-28T09:56:36;10.70;99.50
17284;DHT22;8760;52.248;20.952;2023-02-28T09:59:13;10.80;99.90
17284;DHT22;8760;52.248;20.952;2023-02-28T10:01:50;11.30;99.40
17284;DHT22;8760;52.248;20.952;2023-02-28T10:04:34;11.30;98.20
17284;DHT22;8760;52.248;20.952;2023-02-28T10:07:06;10.70;95.70
17284;DHT22;8760;52.248;20.952;2023-02-28T10:09:44;11.20;95.20
17284;DHT22;8760;52.248;20.952;2023-02-28T10:12:12;11.40;94.80
17284;DHT22;8760;52.248;20.952;2023-02-28T10:14:43;11.30;94.10
17284;DHT22;8760;52.248;20.952;2023-02-28T10:17:14;11.80;93.30
17284;DHT22;8760;52.248;20.952;2023-02-28T10:19:49;12.30;93.00
17284;DHT22;8760;52.248;20.952;2023-02-28T10:22:21;12.10;90.90
17284;DHT22;8760;52.248;20.952;2023-02-28T10:24:51;12.00;91.40
17284;DHT22;8760;52.248;20.952;2023-02-28T10:27:20;12.90;92.50
17284;DHT22;8760;52.248;20.952;2023-02-28T10:29:49;12.60;92.30
17284;DHT22;8760;52.248;20.952;2023-02-28T10:32:18;12.60;91.70
17284;DHT22;8760;52.248;20.952;2023-02-28T10:34:51;12.10;91.60
17284;DHT22;8760;52.248;20.952;2023-02-28T10:37:20;12.10;91.00
17284;DHT22;8760;52.248;20.952;2023-02-28T10:39:47;12.20;90.40
17284;DHT22;8760;52.248;20.952;2023-02-28T10:42:23;13.40;88.50
17284;DHT22;8760;52.248;20.952;2023-02-28T10:45:06;12.70;85.30
17284;DHT22;8760;52.248;20.952;2023-02-28T10:47:34;12.70;80.60
17284;DHT22;8760;52.248;20.952;2023-02-28T10:50:02;12.50;77.90
17284;DHT22;8760;52.248;20.952;2023-02-28T10:52:38;13.10;80.00
17284;DHT22;8760;52.248;20.952;2023-02-28T10:55:20;12.70;77.30
17284;DHT22;8760;52.248;20.952;2023-02-28T10:57:48;13.70;77.30
17284;DHT22;8760;52.248;20.952;2023-02-28T11:00:17;13.20;72.60
17284;DHT22;8760;52.248;20.952;2023-02-28T11:02:45;14.10;73.50
17284;DHT22;8760;52.248;20.952;2023-02-28T11:05:27;14.80;72.30
17284;DHT22;8760;52.248;20.952;2023-02-28T11:07:59;14.10;70.20
17284;DHT22;8760;52.248;20.952;2023-02-28T11:10:31;14.30;70.40
17284;DHT22;8760;52.248;20.952;2023-02-28T11:13:01;14.30;66.50
17284;DHT22;8760;52.248;20.952;2023-02-28T11:15:30;13.90;63.30
17284;DHT22;8760;52.248;20.952;2023-02-28T11:17:59;14.00;62.00
17284;DHT22;8760;52.248;20.952;2023-02-28T11:20:28;13.80;60.00
17284;DHT22;8760;52.248;20.952;2023-02-28T11:22:58;13.30;59.60
17284;DHT22;8760;52.248;20.952;2023-02-28T11:25:30;13.50;60.60
17284;DHT22;8760;52.248;20.952;2023-02-28T11:27:58;12.70;55.10
17284;DHT22;8760;52.248;20.952;2023-02-28T11:30:30;12.60;68.20
17284;DHT22;8760;52.248;20.952;2023-02-28T11:32:57;12.30;57.40
17284;DHT22;8760;52.248;20.952;2023-02-28T11:35:28;12.60;55.60
17284;DHT22;8760;52.248;20.952;2023-02-28T11:37:58;13.50;57.90
17284;DHT22;8760;52.248;20.952;2023-02-28T11:40:31;13.50;57.60
17284;DHT22;8760;52.248;20.952;2023-02-28T11:43:08;13.00;55.30
17284;DHT22;8760;52.248;20.952;2023-02-28T11:45:45;13.00;54.40
17284;DHT22;8760;52.248;20.952;2023-02-28T11:48:20;12.20;55.60
17284;DHT22;8760;52.248;20.952;2023-02-28T11:51:03;11.90;56.00
17284;DHT22;8760;52.248;20.952;2023-02-28T11:53:47;11.90;57.00
17284;DHT22;8760;52.248;20.952;2023-02-28T11:56:23;12.00;58.60
17284;DHT22;8760;52.248;20.952;2023-02-28T11:58:59;12.00;57.50
17284;DHT22;8760;52.248;20.952;2023-02-28T12:01:43;12.50;59.10
17284;DHT22;8760;52.248;20.952;2023-02-28T12:04:21;12.70;56.50
17284;DHT22;8760;52.248;20.952;2023-02-28T12:06:56;12.50;55.70
17284;DHT22;8760;52.248;20.952;2023-02-28T12:09:43;12.80;54.90
17284;DHT22;8760;52.248;20.952;2023-02-28T12:12:23;13.10;56.20
17284;DHT22;8760;52.248;20.952;2023-02-28T12:15:01;12.60;55.70
17284;DHT22;8760;52.248;20.952;2023-02-28T12:17:40;12.80;54.50
17284;DHT22;8760;52.248;20.952;2023-02-28T12:20:16;12.80;53.70
17284;DHT22;8760;52.248;20.952;2023-02-28T12:22:51;11.90;52.70
17284;DHT22;8760;52.248;20.952;2023-02-28T12:25:39;12.00;52.30
17284;DHT22;8760;52.248;20.952;2023-02-28T12:28:13;12.00;50.90
17284;DHT22;8760;52.248;20.952;2023-02-28T12:30:46;12.10;50.30
17284;DHT22;8760;52.248;20.952;2023-02-28T12:33:18;11.00;49.20
17284;DHT22;8760;52.248;20.952;2023-02-28T12:35:49;10.50;47.10
17284;DHT22;8760;52.248;20.952;2023-02-28T12:38:20;10.40;49.50
17284;DHT22;8760;52.248;20.952;2023-02-28T12:40:53;10.10;49.50
17284;DHT22;8760;52.248;20.952;2023-02-28T12:43:22;9.80;48.80
17284;DHT22;8760;52.248;20.952;2023-02-28T12:45:55;9.90;50.70
17284;DHT22;8760;52.248;20.952;2023-02-28T12:48:27;10.40;52.20
17284;DHT22;8760;52.248;20.952;2023-02-28T12:50:57;11.10;50.10
17284;DHT22;8760;52.248;20.952;2023-02-28T12:53:29;12.00;51.10
17284;DHT22;8760;52.248;20.952;2023-02-28T12:56:09;11.50;52.00
17284;DHT22;8760;52.248;20.952;2023-02-28T12:58:42;11.50;51.00
17284;DHT22;8760;52.248;20.952;2023-02-28T13:01:47;12.40;55.80
17284;DHT22;8760;52.248;20.952;2023-02-28T13:04:55;13.00;55.00
17284;DHT22;8760;52.248;20.952;2023-02-28T13:10:42;13.40;47.10
17284;DHT22;8760;52.248;20.952;2023-02-28T13:13:16;13.30;46.80
17284;DHT22;8760;52.248;20.952;2023-02-28T13:16:01;13.40;45.80
17284;DHT22;8760;52.248;20.952;2023-02-28T13:18:34;13.30;45.80
17284;DHT22;8760;52.248;20.952;2023-02-28T13:21:04;12.80;44.60
17284;DHT22;8760;52.248;20.952;2023-02-28T13:26:22;11.30;41.80
17284;DHT22;8760;52.248;20.952;2023-02-28T13:29:28;10.70;44.20
17284;DHT22;8760;52.248;20.952;2023-02-28T13:32:19;10.80;44.00
17284;DHT22;8760;52.248;20.952;2023-02-28T13:38:25;10.40;44.30
17284;DHT22;8760;52.248;20.952;2023-02-28T13:44:00;9.20;43.70
17284;DHT22;8760;52.248;20.952;2023-02-28T13:46:29;8.80;44.40
17284;DHT22;8760;52.248;20.952;2023-02-28T13:48:57;8.60;44.00
17284;DHT22;8760;52.248;20.952;2023-02-28T13:51:45;8.70;43.60
17284;DHT22;8760;52.248;20.952;2023-02-28T13:54:33;9.10;45.40
17284;DHT22;8760;52.248;20.952;2023-02-28T13:57:19;9.20;44.60
17284;DHT22;8760;52.248;20.952;2023-02-28T13:59:55;9.20;46.50
17284;DHT22;8760;52.248;20.952;2023-02-28T14:05:36;10.10;49.00
17284;DHT22;8760;52.248;20.952;2023-02-28T14:08:08;10.80;48.30
17284;DHT22;8760;52.248;20.952;2023-02-28T14:10:44;12.00;51.40
17284;DHT22;8760;52.248;20.952;2023-02-28T14:13:14;12.70;48.90
17284;DHT22;8760;52.248;20.952;2023-02-28T14:16:06;12.80;45.30
17284;DHT22;8760;52.248;20.952;2023-02-28T14:18:34;13.20;46.20
17284;DHT22;8760;52.248;20.952;2023-02-28T14:21:10;13.20;43.40
17284;DHT22;8760;52.248;20.952;2023-02-28T14:27:20;13.90;43.30
17284;DHT22;8760;52.248;20.952;2023-02-28T14:32:58;13.90;39.40
17284;DHT22;8760;52.248;20.952;2023-02-28T14:35:43;13.70;35.90
17284;DHT22;8760;52.248;20.952;2023-02-28T14:38:17;13.20;32.60
17284;DHT22;8760;52.248;20.952;2023-02-28T14:40:47;12.90;35.70
17284;DHT22;8760;52.248;20.952;2023-02-28T14:43:21;12.30;34.80
17284;DHT22;8760;52.248;20.952;2023-02-28T14:45:50;12.10;34.10
17284;DHT22;8760;52.248;20.952;2023-02-28T14:48:20;11.60;34.20
17284;DHT22;8760;52.248;20.952;2023-02-28T14:50:52;10.80;32.70
17284;DHT22;8760;52.248;20.952;2023-02-28T14:53:21;9.80;31.50
17284;DHT22;8760;52.248;20.952;2023-02-28T14:55:49;8.80;34.10
17284;DHT22;8760;52.248;20.952;2023-02-28T14:58:24;8.10;34.40
17284;DHT22;8760;52.248;20.952;2023-02-28T15:00:53;7.90;37.00
17284;DHT22;8760;52.248;20.952;2023-02-28T15:03:23;8.20;40.00
17284;DHT22;8760;52.248;20.952;2023-02-28T15:05:52;8.50;40.00
17284;DHT22;8760;52.248;20.952;2023-02-28T15:08:19;8.80;41.40
17284;DHT22;8760;52.248;20.952;2023-02-28T15:10:53;9.10;41.20
17284;DHT22;8760;52.248;20.952;2023-02-28T15:13:21;9.00;40.10
17284;DHT22;8760;52.248;20.952;2023-02-28T15:15:51;8.70;41.40
17284;DHT22;8760;52.248;20.952;2023-02-28T15:18:30;8.40;42.50
17284;DHT22;8760;52.248;20.952;2023-02-28T15:21:02;8.20;41.40
17284;DHT22;8760;52.248;20.952;2023-02-28T15:23:31;8.20;42.50
17284;DHT22;8760;52.248;20.952;2023-02-28T15:25:59;8.30;41.70
17284;DHT22;8760;52.248;20.952;2023-02-28T15:28:27;8.10;56.20
17284;DHT22;8760;52.248;20.952;2023-02-28T15:30:57;7.90;41.90
17284;DHT22;8760;52.248;20.952;2023-02-28T15:33:26;7.40;40.30
17284;DHT22;8760;52.248;20.952;2023-02-28T15:36:10;6.90;38.90
17284;DHT22;8760;52.248;20.952;2023-02-28T15:38:39;6.50;42.60
17284;DHT22;8760;52.248;20.952;2023-02-28T15:41:23;6.00;43.40
17284;DHT22;8760;52.248;20.952;2023-02-28T15:44:15;5.50;44.10
17284;DHT22;8760;52.248;20.952;2023-02-28T15:46:45;5.10;47.40
17284;DHT22;8760;52.248;20.952;2023-02-28T15:49:21;4.70;48.40
17284;DHT22;8760;52.248;20.952;2023-02-28T15:51:50;4.40;53.30
17284;DHT22;8760;52.248;20.952;2023-02-28T15:54:20;4.10;59.00
17284;DHT22;8760;52.248;20.952;2023-02-28T15:56:52;3.90;71.30
17284;DHT22;8760;52.248;20.952;2023-02-28T15:59:22;3.90;79.10
17284;DHT22;8760;52.248;20.952;2023-02-28T16:02:04;3.70;78.40
17284;DHT22;8760;52.248;20.952;2023-02-28T16:04:55;3.60;90.00
17284;DHT22;8760;52.248;20.952;2023-02-28T16:07:23;3.50;98.10
17284;DHT22;8760;52.248;20.952;2023-02-28T16:09:51;3.30;99.90
17284;DHT22;8760;52.248;20.952;2023-02-28T16:12:19;3.10;99.90
17284;DHT22;8760;52.248;20.952;2023-02-28T16:14:47;3.00;99.90
17284;DHT22;8760;52.248;20.952;2023-02-28T16:17:20;2.90;99.90
17284;DHT22;8760;52.248;20.952;2023-02-28T16:19:49;2.80;99.90
17284;DHT22;8760;52.248;20.952;2023-02-28T16:22:16;2.70;99.90
17284;DHT22;8760;52.248;20.952;2023-02-28T16:24:42;2.60;99.90
17284;DHT22;8760;52.248;20.952;2023-02-28T16:27:17;2.60;99.90
17284;DHT22;8760;52.248;20.952;2023-02-28T16:29:44;2.60;99.90